Time;durP1;ratioP1;P1;durP2;ratioP2;P2;SDS_P1;SDS_P2;PMS_P1;PMS_P2;Temp;Humidity;BMP_temperature;BMP_pressure;BME280_temperature;BME280_humidity;BME280_pressure;Samples;Min_cycle;Max_cycle;Signal;HPM_P1;HPM_P2
2022/12/29 00:02:21;;;;;;;126.38;52.15;;;;;;;8.68;100.00;101217.38;5053617;28;20349;-84
2022/12/29 00:04:49;;;;;;;128.82;51.95;;;;;;;8.73;100.00;101216.97;5053060;28;20064;-82
2022/12/29 00:07:15;;;;;;;137.07;53.20;;;;;;;8.75;100.00;101215.88;5049449;28;20041;-82
2022/12/29 00:09:43;;;;;;;121.40;50.65;;;;;;;8.70;100.00;101206.69;5040491;28;20033;-84
2022/12/29 00:12:09;;;;;;;137.05;53.45;;;;;;;8.71;100.00;101206.56;5041459;28;20057;-81
2022/12/29 00:17:19;;;;;;;126.18;51.05;;;;;;;8.96;100.00;101207.03;5038860;28;20077;-80
2022/12/29 00:36:35;;;;;;;133.07;53.25;;;;;;;8.76;100.00;101177.91;5017939;28;20038;-83
2022/12/29 00:44:38;;;;;;;135.57;54.92;;;;;;;8.82;100.00;101177.38;5031013;28;20034;-88
2022/12/29 00:47:04;;;;;;;136.65;53.40;;;;;;;8.91;100.00;101174.91;5033528;28;20026;-80
2022/12/29 00:49:31;;;;;;;140.30;54.83;;;;;;;8.87;100.00;101174.31;5037363;28;20040;-84
2022/12/29 00:52:06;;;;;;;143.55;55.47;;;;;;;9.04;100.00;101178.13;4986687;28;20044;-80
2022/12/29 00:54:34;;;;;;;137.63;55.60;;;;;;;8.92;100.00;101184.47;5014120;28;20037;-82
2022/12/29 00:57:01;;;;;;;141.43;53.67;;;;;;;8.85;100.00;101176.25;5036174;28;20090;-84
2022/12/29 00:59:26;;;;;;;143.02;53.95;;;;;;;8.77;100.00;101176.09;5037059;28;20029;-82
2022/12/29 01:01:53;;;;;;;137.18;55.83;;;;;;;8.78;100.00;101170.66;5021026;28;20086;-83
2022/12/29 01:04:20;;;;;;;140.13;54.13;;;;;;;8.76;100.00;101177.91;5010301;28;20304;-81
2022/12/29 01:06:46;;;;;;;142.02;56.20;;;;;;;8.88;100.00;101186.59;5041696;28;20046;-80
2022/12/29 01:11:59;;;;;;;138.40;54.53;;;;;;;8.78;100.00;101175.94;5030047;28;20570;-78
2022/12/29 01:14:25;;;;;;;122.43;49.55;;;;;;;8.96;100.00;101172.66;5030857;28;20038;-82
2022/12/29 01:16:51;;;;;;;141.18;53.00;;;;;;;8.89;100.00;101184.75;5044575;28;20033;-82
2022/12/29 01:19:18;;;;;;;126.82;53.20;;;;;;;8.96;100.00;101193.81;5045742;28;20047;-82
2022/12/29 01:22:15;;;;;;;129.20;50.67;;;;;;;9.10;100.00;101193.44;5037591;28;20025;-85
2022/12/29 01:24:41;;;;;;;128.68;50.20;;;;;;;9.24;100.00;101198.34;5027976;28;20037;-82
2022/12/29 01:27:06;;;;;;;126.15;52.10;;;;;;;9.02;100.00;101180.88;5044528;28;20499;-79
2022/12/29 01:29:32;;;;;;;124.25;49.80;;;;;;;8.99;100.00;101175.03;5026999;28;20460;-80
2022/12/29 01:31:57;;;;;;;133.07;52.38;;;;;;;8.82;100.00;101166.78;5020869;28;20046;-80
2022/12/29 01:34:22;;;;;;;135.68;52.15;;;;;;;8.94;100.00;101182.56;4999068;28;20037;-81
2022/12/29 01:36:49;;;;;;;128.55;51.80;;;;;;;9.06;100.00;101184.09;5016978;28;20038;-81
2022/12/29 01:39:15;;;;;;;137.05;52.08;;;;;;;9.07;100.00;101191.91;5001861;28;20033;-81
2022/12/29 01:41:41;;;;;;;139.82;53.42;;;;;;;8.96;100.00;101189.38;5006591;28;20552;-80
2022/12/29 01:45:01;;;;;;;143.43;55.42;;;;;;;8.84;100.00;101179.88;4998708;28;20049;-80
2022/12/29 01:47:32;;;;;;;138.25;52.88;;;;;;;8.68;100.00;101185.66;4923321;29;20036;-79
2022/12/29 01:50:02;;;;;;;138.02;50.72;;;;;;;9.02;100.00;101185.34;4995895;28;20409;-79
2022/12/29 01:52:31;;;;;;;130.77;51.47;;;;;;;9.02;100.00;101183.53;5019910;28;20088;-81
2022/12/29 01:54:59;;;;;;;139.63;53.00;;;;;;;9.18;100.00;101193.59;5019714;28;20033;-78
2022/12/29 01:57:37;;;;;;;133.82;53.00;;;;;;;9.00;100.00;101177.56;5019321;28;20037;-79
2022/12/29 02:00:13;;;;;;;140.02;52.95;;;;;;;8.89;100.00;101172.38;5004155;28;20445;-85
2022/12/29 02:02:47;;;;;;;141.70;54.33;;;;;;;8.89;100.00;101171.53;5005594;28;20408;-83
2022/12/29 02:05:47;;;;;;;140.40;53.33;;;;;;;8.95;100.00;101176.31;5016419;28;20042;-83
2022/12/29 02:08:14;;;;;;;140.25;52.88;;;;;;;8.89;100.00;101171.53;5016427;28;20034;-83
2022/12/29 02:10:41;;;;;;;151.18;54.80;;;;;;;8.85;100.00;101156.94;5027340;28;20026;-83
2022/12/29 02:13:07;;;;;;;144.48;55.92;;;;;;;8.95;100.00;101171.00;5032075;28;20054;-83
2022/12/29 02:16:05;;;;;;;132.73;53.50;;;;;;;9.27;100.00;101169.81;5013045;28;20041;-80
2022/12/29 02:18:52;;;;;;;146.52;53.58;;;;;;;9.30;100.00;101168.69;4980778;28;20069;-82
2022/12/29 02:21:49;;;;;;;148.68;58.05;;;;;;;9.01;100.00;101163.38;5009293;28;20072;-81
2022/12/29 02:24:58;;;;;;;151.05;56.80;;;;;;;9.06;100.00;101161.13;5008281;28;20034;-82
2022/12/29 02:27:41;;;;;;;154.45;57.67;;;;;;;9.00;100.00;101168.78;5024706;28;20165;-80
2022/12/29 02:30:41;;;;;;;165.10;59.42;;;;;;;9.08;100.00;101161.03;5009975;28;20034;-80
2022/12/29 02:36:58;;;;;;;144.77;55.20;;;;;;;8.93;100.00;101157.06;4960108;29;20051;-85
2022/12/29 02:39:52;;;;;;;158.65;56.67;;;;;;;8.79;100.00;101151.19;4958882;28;20084;-87
2022/12/29 02:42:45;;;;;;;156.40;59.13;;;;;;;8.90;100.00;101144.97;4959866;28;20065;-88
2022/12/29 02:45:12;;;;;;;156.98;57.42;;;;;;;8.89;100.00;101153.03;4976328;28;20045;-86
2022/12/29 02:47:59;;;;;;;156.23;58.25;;;;;;;8.95;100.00;101134.81;4975905;28;20047;-86
2022/12/29 02:50:54;;;;;;;151.63;56.13;;;;;;;9.12;100.00;101139.44;4975996;28;20051;-86
2022/12/29 02:54:40;;;;;;;158.35;56.80;;;;;;;8.87;100.00;101137.31;4966724;28;20071;-78
2022/12/29 02:56:09;;;;;;;145.85;56.47;;;;;;;8.81;100.00;101144.00;4957548;28;20573;-80
2022/12/29 02:58:35;;;;;;;161.38;58.55;;;;;;;8.81;100.00;101130.78;4941688;29;20118;-80
2022/12/29 03:01:16;;;;;;;169.25;58.88;;;;;;;8.84;100.00;101127.03;4957735;28;20079;-78
2022/12/29 03:03:53;;;;;;;163.73;59.60;;;;;;;8.82;100.00;101128.94;4957172;28;20053;-81
2022/12/29 03:06:36;;;;;;;153.75;58.50;;;;;;;9.01;100.00;101133.44;4957458;28;20153;-82
2022/12/29 03:09:16;;;;;;;;;;;;;;;8.75;100.00;101128.66;4942898;29;20039;-83
2022/12/29 03:12:19;;;;;;;150.35;55.45;;;;;;;8.77;100.00;101136.47;4942778;29;19918;-83
2022/12/29 03:18:03;;;;;;;174.05;60.83;;;;;;;8.67;100.00;101125.88;5002854;28;20397;-84
2022/12/29 03:20:38;;;;;;;173.55;60.25;;;;;;;8.78;100.00;101125.75;5019934;28;20041;-88
2022/12/29 03:23:06;;;;;;;167.60;59.30;;;;;;;8.95;100.00;101123.44;5002384;28;20092;-83
2022/12/29 03:25:43;;;;;;;165.95;57.97;;;;;;;8.95;100.00;101123.44;5020463;28;20045;-89
2022/12/29 03:28:18;;;;;;;162.80;59.30;;;;;;;8.90;100.00;101120.34;5003106;28;20060;-85
2022/12/29 03:30:46;;;;;;;157.43;57.58;;;;;;;8.99;100.00;101122.16;5002255;28;20044;-86
2022/12/29 03:33:19;;;;;;;148.15;54.55;;;;;;;9.08;100.00;101113.44;4986650;28;20523;-88
2022/12/29 03:35:52;;;;;;;150.35;57.63;;;;;;;9.21;100.00;101117.44;5001643;28;20069;-84
2022/12/29 03:38:58;;;;;;;146.30;55.50;;;;;;;9.00;100.00;101121.19;5020072;28;20620;-87
2022/12/29 03:41:30;;;;;;;147.65;55.58;;;;;;;8.96;100.00;101119.78;5019064;28;20041;-87
2022/12/29 03:44:01;;;;;;;;;;;;;;;8.88;100.00;101122.31;5020021;28;20514;-84
2022/12/29 03:46:30;;;;;;;155.45;58.05;;;;;;;8.91;100.00;101128.16;4985565;28;20032;-84
2022/12/29 03:48:56;;;;;;;162.07;57.88;;;;;;;8.89;100.00;101114.22;5001409;28;20097;-87
2022/12/29 03:51:22;;;;;;;146.82;56.35;;;;;;;8.91;100.00;101132.59;5011591;28;20041;-80
2022/12/29 03:53:48;;;;;;;159.65;58.05;;;;;;;9.02;100.00;101129.81;5022228;28;20132;-78
2022/12/29 03:56:19;;;;;;;165.07;56.75;;;;;;;9.02;100.00;101116.59;5034720;28;20030;-82
2022/12/29 03:58:49;;;;;;;142.07;55.20;;;;;;;9.01;100.00;101125.53;5019338;28;20034;-80
2022/12/29 04:01:20;;;;;;;167.80;57.53;;;;;;;9.04;100.00;101133.19;5004522;28;20045;-80
2022/12/29 04:03:46;;;;;;;158.90;59.13;;;;;;;8.96;100.00;101136.50;5015120;28;20049;-80
2022/12/29 04:06:12;;;;;;;163.88;59.05;;;;;;;8.75;100.00;101131.28;5015702;28;20030;-79
2022/12/29 04:08:53;;;;;;;158.20;55.85;;;;;;;8.66;100.00;101126.84;5013200;28;20085;-80
2022/12/29 04:11:20;;;;;;;156.47;56.27;;;;;;;8.79;100.00;101126.56;5014522;28;20086;-82
2022/12/29 04:13:45;;;;;;;152.45;57.40;;;;;;;8.81;100.00;101129.94;5015713;28;20269;-82
2022/12/29 04:16:15;;;;;;;156.70;57.30;;;;;;;8.68;100.00;101122.22;5012079;28;20077;-79
2022/12/29 04:18:41;;;;;;;157.25;58.30;;;;;;;8.53;100.00;101123.59;5007901;28;20061;-87
2022/12/29 04:21:06;;;;;;;159.95;57.65;;;;;;;8.49;100.00;101118.69;5003163;28;20026;-79
2022/12/29 04:23:36;;;;;;;174.18;60.90;;;;;;;8.44;100.00;101124.41;4985320;28;20452;-80
2022/12/29 04:26:07;;;;;;;164.60;59.58;;;;;;;8.49;100.00;101126.63;5000154;28;20408;-80
2022/12/29 04:28:33;;;;;;;173.18;59.88;;;;;;;8.50;100.00;101123.88;4999239;28;20561;-88
2022/12/29 04:31:14;;;;;;;174.45;60.00;;;;;;;8.53;100.00;101104.25;5000200;28;20038;-89
2022/12/29 04:33:42;;;;;;;175.43;60.33;;;;;;;8.51;100.00;101107.06;5000575;28;20042;-84
2022/12/29 04:36:07;;;;;;;178.90;61.65;;;;;;;8.51;100.00;101108.84;5018311;28;20033;-85
2022/12/29 04:38:35;;;;;;;184.85;62.78;;;;;;;8.48;100.00;101109.13;5019249;28;20461;-89
2022/12/29 04:41:03;;;;;;;170.13;60.17;;;;;;;8.49;100.00;101122.19;5001066;28;20041;-87
2022/12/29 04:43:29;;;;;;;165.68;59.17;;;;;;;8.59;100.00;101117.75;5001259;28;20128;-85
2022/12/29 04:46:03;;;;;;;168.52;60.25;;;;;;;8.64;100.00;101118.22;5018517;28;20113;-84
2022/12/29 04:48:43;;;;;;;178.35;59.38;;;;;;;8.60;100.00;101118.59;5001044;28;20030;-85
2022/12/29 04:51:27;;;;;;;170.93;58.20;;;;;;;8.68;100.00;101116.94;5000505;28;20026;-88
2022/12/29 04:53:54;;;;;;;170.40;60.17;;;;;;;8.77;100.00;101116.16;5000297;28;20038;-84
2022/12/29 04:56:19;;;;;;;167.60;58.97;;;;;;;8.72;100.00;101123.66;4999500;28;20030;-89
2022/12/29 04:58:45;;;;;;;164.30;57.33;;;;;;;8.88;100.00;101122.31;4999494;28;20440;-86
2022/12/29 05:01:11;;;;;;;166.30;57.83;;;;;;;8.79;100.00;101118.66;4998624;28;20453;-83
2022/12/29 05:03:37;;;;;;;175.82;59.92;;;;;;;8.70;100.00;101120.31;5015451;28;20042;-81
2022/12/29 05:06:03;;;;;;;188.63;60.28;;;;;;;8.64;100.00;101118.22;4997641;28;20511;-81
2022/12/29 05:08:29;;;;;;;168.95;57.33;;;;;;;8.74;100.00;101120.88;4998388;28;20038;-84
2022/12/29 05:10:57;;;;;;;179.02;60.53;;;;;;;8.71;100.00;101116.72;4997331;28;20041;-81
2022/12/29 05:13:23;;;;;;;169.57;61.08;;;;;;;8.65;100.00;101117.22;4998272;28;20053;-85
2022/12/29 05:15:52;;;;;;;173.35;57.28;;;;;;;8.69;100.00;101115.16;4997559;28;20041;-85
2022/12/29 05:18:19;;;;;;;173.70;61.00;;;;;;;8.78;100.00;101127.56;4998211;28;20029;-87
2022/12/29 05:20:46;;;;;;;169.85;55.50;;;;;;;8.94;100.00;101124.41;4998234;28;20397;-82
2022/12/29 05:23:12;;;;;;;164.80;58.10;;;;;;;8.93;100.00;101126.19;4997956;28;20030;-81
2022/12/29 05:25:38;;;;;;;164.40;55.92;;;;;;;8.87;100.00;101117.97;4997797;28;20042;-84
2022/12/29 05:28:29;;;;;;;172.90;59.58;;;;;;;8.74;100.00;101131.44;5007713;28;20037;-88
2022/12/29 05:31:00;;;;;;;164.20;59.63;;;;;;;8.95;100.00;101144.59;4997516;28;20192;-85
2022/12/29 05:33:26;;;;;;;172.10;57.58;;;;;;;8.97;100.00;101139.97;4998200;28;20030;-84
2022/12/29 05:35:51;;;;;;;164.35;58.85;;;;;;;8.88;100.00;101154.03;4999266;28;20171;-82
2022/12/29 05:38:18;;;;;;;172.60;60.40;;;;;;;8.58;100.00;101153.09;5017293;28;20030;-87
2022/12/29 05:40:44;;;;;;;179.30;61.88;;;;;;;8.41;100.00;101148.44;5018096;28;20041;-88
2022/12/29 05:43:33;;;;;;;175.10;59.65;;;;;;;8.49;100.00;101151.25;5017359;28;20042;-89
2022/12/29 05:46:10;;;;;;;182.35;62.00;;;;;;;8.45;100.00;101152.47;5008841;28;20060;-87
2022/12/29 05:48:54;;;;;;;182.38;59.53;;;;;;;8.54;100.00;101150.84;5037972;28;20133;-89
2022/12/29 05:51:24;;;;;;;161.98;57.20;;;;;;;8.72;100.00;101144.78;5038280;28;20030;-86
2022/12/29 05:53:55;;;;;;;175.63;57.58;;;;;;;8.69;100.00;101149.50;5019947;28;20041;-87
2022/12/29 05:56:21;;;;;;;169.57;58.67;;;;;;;8.59;100.00;101146.81;5018977;28;20121;-86
2022/12/29 05:58:53;;;;;;;119.30;42.08;;;;;;;8.61;100.00;101147.56;5017787;28;20033;-88
2022/12/29 06:01:21;;;;;;;170.73;60.72;;;;;;;8.46;100.00;101138.31;5018882;28;20040;-87
2022/12/29 06:03:46;;;;;;;169.15;56.95;;;;;;;8.56;100.00;101147.09;5018914;28;20030;-89
2022/12/29 06:06:15;;;;;;;165.98;58.38;;;;;;;8.65;100.00;101146.28;5018404;28;20049;-86
2022/12/29 06:08:45;;;;;;;163.10;57.03;;;;;;;8.65;100.00;101137.56;5018437;28;20092;-89
2022/12/29 06:11:10;;;;;;;165.57;56.30;;;;;;;8.71;100.00;101137.00;5020158;28;20048;-87
2022/12/29 06:13:37;;;;;;;151.32;55.50;;;;;;;8.85;100.00;101149.81;5019109;28;20063;-84
2022/12/29 06:16:03;;;;;;;165.80;55.97;;;;;;;8.88;100.00;101157.50;5035454;28;20080;-87
2022/12/29 06:18:29;;;;;;;146.32;55.65;;;;;;;8.90;100.00;101152.06;5017017;28;20049;-84
2022/12/29 06:21:04;;;;;;;151.70;54.67;;;;;;;8.98;100.00;101144.31;5017880;28;20083;-87
2022/12/29 06:23:30;;;;;;;140.10;52.20;;;;;;;9.01;100.00;101141.38;5016504;28;20088;-85
2022/12/29 06:25:59;;;;;;;146.77;52.88;;;;;;;8.90;100.00;101154.72;5017068;28;20033;-85
2022/12/29 06:28:24;;;;;;;148.52;54.53;;;;;;;8.70;100.00;101146.75;5032742;28;20009;-79
2022/12/29 06:30:55;;;;;;;143.20;54.70;;;;;;;8.79;100.00;101148.56;5053184;28;20041;-79
2022/12/29 06:33:20;;;;;;;153.57;53.30;;;;;;;9.02;100.00;101145.69;5029600;28;20049;-79
2022/12/29 06:35:46;;;;;;;153.75;53.88;;;;;;;8.98;100.00;101146.94;5050148;28;20037;-81
2022/12/29 06:38:15;;;;;;;157.98;54.90;;;;;;;8.88;100.00;101148.72;5046110;28;20399;-84
2022/12/29 06:40:42;;;;;;;138.77;50.70;;;;;;;8.93;100.00;101146.50;5039002;28;20480;-80
2022/12/29 06:43:08;;;;;;;150.18;53.17;;;;;;;9.07;100.00;101143.47;5038698;28;20065;-84
2022/12/29 06:45:57;;;;;;;139.30;51.47;;;;;;;9.03;100.00;101144.72;5030247;28;20559;-87
2022/12/29 06:48:22;;;;;;;141.07;52.03;;;;;;;8.98;100.00;101150.41;5042938;28;20140;-83
2022/12/29 06:50:48;;;;;;;143.65;51.35;;;;;;;9.11;100.00;101150.16;5045084;28;20061;-80
2022/12/29 06:53:13;;;;;;;142.82;51.15;;;;;;;9.10;100.00;101151.13;5048013;28;20025;-86
2022/12/29 06:55:39;;;;;;;145.88;51.22;;;;;;;8.79;100.00;101153.00;5047610;28;20096;-83
2022/12/29 06:58:04;;;;;;;151.70;54.22;;;;;;;8.70;100.00;101152.03;5047651;28;20030;-81
2022/12/29 07:00:30;;;;;;;158.55;55.05;;;;;;;8.76;100.00;101146.19;5047968;28;20059;-83
2022/12/29 07:02:57;;;;;;;145.75;51.08;;;;;;;8.75;100.00;101149.78;5043823;28;20029;-79
2022/12/29 07:05:24;;;;;;;148.43;52.13;;;;;;;8.88;100.00;101138.16;5047216;28;20025;-81
2022/12/29 07:07:50;;;;;;;146.13;54.17;;;;;;;8.81;100.00;101141.34;5047478;28;20025;-84
2022/12/29 07:10:16;;;;;;;162.05;56.78;;;;;;;8.83;100.00;101141.19;5037003;28;20052;-84
2022/12/29 07:12:41;;;;;;;163.15;56.95;;;;;;;8.55;100.00;101141.97;5037110;28;20040;-84
2022/12/29 07:15:07;;;;;;;163.10;56.05;;;;;;;8.40;100.00;101144.13;5019187;28;20040;-81
2022/12/29 07:17:33;;;;;;;176.15;59.85;;;;;;;8.33;100.00;101137.69;5037137;28;20041;-84
2022/12/29 07:19:58;;;;;;;179.05;62.22;;;;;;;8.27;100.00;101143.47;5037001;28;20061;-85
2022/12/29 07:22:24;;;;;;;171.40;61.00;;;;;;;8.29;100.00;101152.13;5037219;28;20033;-81
2022/12/29 07:24:49;;;;;;;184.07;60.03;;;;;;;8.35;100.00;101130.50;5035423;28;20132;-80
2022/12/29 07:27:15;;;;;;;186.38;60.47;;;;;;;8.39;100.00;101137.16;5038069;28;20460;-80
2022/12/29 07:29:40;;;;;;;172.38;61.33;;;;;;;8.41;100.00;101142.31;5036907;28;20084;-85
2022/12/29 07:32:06;;;;;;;173.68;59.25;;;;;;;8.17;100.00;101134.69;5001493;28;20129;-81
2022/12/29 07:34:31;;;;;;;186.35;61.40;;;;;;;8.14;100.00;101132.31;5035111;28;20084;-84
2022/12/29 07:36:57;;;;;;;180.70;63.78;;;;;;;8.20;100.00;101132.59;5036487;28;20030;-82
2022/12/29 07:39:22;;;;;;;163.82;59.05;;;;;;;8.33;100.00;101142.97;5037435;28;20103;-79
2022/12/29 07:41:48;;;;;;;161.80;58.38;;;;;;;8.32;100.00;101146.56;5036738;28;20099;-80
2022/12/29 07:44:18;;;;;;;167.88;59.17;;;;;;;8.26;100.00;101141.78;5035349;28;20025;-82
2022/12/29 07:46:55;;;;;;;169.20;58.25;;;;;;;8.37;100.00;101149.69;5019698;28;20037;-83
2022/12/29 07:49:21;;;;;;;169.10;58.30;;;;;;;8.28;100.00;101148.69;5018707;28;20037;-82
2022/12/29 07:51:46;;;;;;;160.00;55.90;;;;;;;8.48;100.00;101161.97;5037053;28;20172;-84
2022/12/29 07:54:12;;;;;;;175.82;60.95;;;;;;;8.35;100.00;101162.19;5002534;28;20396;-81
2022/12/29 07:56:38;;;;;;;175.35;60.67;;;;;;;8.33;100.00;101156.19;5036670;28;20038;-84
2022/12/29 07:59:03;;;;;;;176.00;61.75;;;;;;;8.30;100.00;101159.94;5036409;28;20021;-77
2022/12/29 08:01:31;;;;;;;170.85;61.53;;;;;;;8.45;100.00;101162.22;5036480;28;20034;-79
2022/12/29 08:03:57;;;;;;;164.45;58.53;;;;;;;8.66;100.00;101155.06;5019475;28;20048;-79
2022/12/29 08:06:22;;;;;;;169.02;55.60;;;;;;;8.85;100.00;101156.94;5036057;28;20045;-84
2022/12/29 08:08:48;;;;;;;156.13;54.42;;;;;;;8.95;100.00;101160.44;5036106;28;20381;-79
2022/12/29 08:11:13;;;;;;;154.82;56.40;;;;;;;9.09;100.00;101160.03;5035765;28;20120;-79
2022/12/29 08:13:39;;;;;;;155.15;54.38;;;;;;;9.07;100.00;101164.63;5037031;28;20396;-82
2022/12/29 08:16:05;;;;;;;145.02;54.08;;;;;;;9.00;100.00;101166.13;5036239;28;20041;-82
2022/12/29 08:18:32;;;;;;;135.80;53.47;;;;;;;9.09;100.00;101162.66;5036769;28;20046;-81
2022/12/29 08:21:04;;;;;;;151.20;55.17;;;;;;;9.07;100.00;101167.28;5038278;28;20038;-80
2022/12/29 08:23:33;;;;;;;161.40;55.78;;;;;;;9.07;100.00;101164.63;5020331;28;20041;-81
2022/12/29 08:26:04;;;;;;;151.45;55.00;;;;;;;9.04;100.00;101170.19;5038104;28;20095;-81
2022/12/29 08:28:31;;;;;;;149.90;53.78;;;;;;;8.95;100.00;101168.38;5044353;28;20065;-78
2022/12/29 08:31:00;;;;;;;150.27;56.10;;;;;;;9.00;100.00;101179.34;5046356;28;20029;-81
2022/12/29 08:33:26;;;;;;;160.38;59.47;;;;;;;8.94;100.00;101182.56;5045420;28;20029;-79
2022/12/29 08:35:58;;;;;;;144.63;53.95;;;;;;;9.12;100.00;101180.91;5027908;28;20060;-80
2022/12/29 08:38:24;;;;;;;146.80;53.80;;;;;;;9.32;100.00;101187.91;5045849;28;20030;-83
2022/12/29 08:40:51;;;;;;;150.30;56.60;;;;;;;9.28;100.00;101176.75;5051430;28;20040;-86
2022/12/29 08:43:16;;;;;;;146.57;55.47;;;;;;;9.20;100.00;101171.34;5053899;28;20037;-84
2022/12/29 08:45:42;;;;;;;155.85;57.65;;;;;;;9.16;100.00;101184.94;5054388;28;20037;-82
2022/12/29 08:48:08;;;;;;;139.75;56.40;;;;;;;9.37;100.00;101192.78;5052189;28;20044;-84
2022/12/29 08:50:36;;;;;;;155.43;58.42;;;;;;;9.04;100.00;101196.63;5051329;28;20518;-83
2022/12/29 08:53:01;;;;;;;151.65;54.88;;;;;;;8.99;100.00;101201.47;5051465;28;20033;-85
2022/12/29 08:55:27;;;;;;;128.32;50.55;;;;;;;9.33;100.00;101197.50;5033848;28;20037;-81
2022/12/29 08:57:55;;;;;;;153.00;55.53;;;;;;;9.21;100.00;101191.50;5054000;28;20052;-79
2022/12/29 09:00:22;;;;;;;139.93;53.83;;;;;;;9.19;100.00;101205.84;5035777;28;20037;-80
2022/12/29 09:02:48;;;;;;;148.55;57.17;;;;;;;9.29;100.00;101201.41;5051787;28;20112;-81
2022/12/29 09:05:14;;;;;;;148.82;54.42;;;;;;;9.30;100.00;101203.09;5052023;28;20050;-82
2022/12/29 09:07:40;;;;;;;151.55;56.33;;;;;;;9.23;100.00;101204.59;5050800;28;20064;-84
2022/12/29 09:10:06;;;;;;;153.13;54.38;;;;;;;9.13;100.00;101203.75;5044648;28;20029;-82
2022/12/29 09:12:31;;;;;;;144.05;53.88;;;;;;;9.10;100.00;101201.38;5042405;28;20029;-86
2022/12/29 09:14:57;;;;;;;146.55;55.13;;;;;;;9.04;100.00;101192.19;5041824;28;20381;-83
2022/12/29 09:17:45;;;;;;;156.93;57.17;;;;;;;9.07;100.00;101188.41;5037011;28;20025;-81
2022/12/29 09:20:20;;;;;;;153.73;55.38;;;;;;;9.29;100.00;101196.09;5021720;28;20112;-87
2022/12/29 09:22:46;;;;;;;147.57;56.90;;;;;;;9.27;100.00;101203.34;5036019;28;20037;-79
2022/12/29 09:25:12;;;;;;;157.25;55.03;;;;;;;9.29;100.00;101198.75;5018011;28;20068;-79
2022/12/29 09:27:38;;;;;;;163.45;58.05;;;;;;;9.49;100.00;101200.44;5017850;28;20061;-82
2022/12/29 09:30:06;;;;;;;159.38;56.50;;;;;;;9.58;100.00;101204.91;5034673;28;20447;-82
2022/12/29 09:32:32;;;;;;;165.23;58.13;;;;;;;9.63;100.00;101207.97;5038128;28;20037;-82
2022/12/29 09:34:58;;;;;;;168.95;56.30;;;;;;;9.62;100.00;101203.66;5037289;28;20045;-80
2022/12/29 09:37:23;;;;;;;154.07;56.97;;;;;;;9.61;100.00;101206.47;5037217;28;20039;-83
2022/12/29 09:39:49;;;;;;;165.20;57.22;;;;;;;9.72;100.00;101199.19;5037211;28;20041;-81
2022/12/29 09:42:34;;;;;;;163.85;61.78;;;;;;;9.66;100.00;101214.78;5036491;28;20033;-82
2022/12/29 09:45:24;;;;;;;149.57;54.90;;;;;;;9.68;100.00;101203.09;5036911;28;20399;-84
2022/12/29 09:47:50;;;;;;;152.77;57.95;;;;;;;9.55;100.00;101197.25;5035536;28;20337;-83
2022/12/29 09:50:28;;;;;;;154.82;57.20;;;;;;;9.54;100.00;101192.94;5035165;28;20030;-80
2022/12/29 09:53:16;;;;;;;151.77;58.05;;;;;;;9.69;100.00;101196.81;5035127;28;20037;-83
2022/12/29 09:55:50;;;;;;;149.75;57.22;;;;;;;9.77;100.00;101181.09;5036038;28;20485;-82
2022/12/29 09:58:23;;;;;;;147.48;56.58;;;;;;;9.90;100.00;101169.38;5036112;28;20440;-85
2022/12/29 10:01:17;;;;;;;153.80;58.90;;;;;;;9.67;100.00;101174.13;5035323;28;20037;-82
2022/12/29 10:03:53;;;;;;;146.07;57.55;;;;;;;9.71;100.00;101171.03;5035256;28;20042;-82
2022/12/29 10:06:44;;;;;;;157.35;64.40;;;;;;;9.68;100.00;101179.28;5017076;28;20534;-80
2022/12/29 10:09:42;;;;;;;151.65;61.40;;;;;;;9.66;100.00;101181.22;5041417;28;20072;-83
2022/12/29 10:12:33;;;;;;;147.77;61.03;;;;;;;9.62;100.00;101185.13;5025165;28;20045;-80
2022/12/29 10:15:04;;;;;;;157.63;59.72;;;;;;;9.69;100.00;101173.00;5043737;28;20037;-79
2022/12/29 10:18:00;;;;;;;188.00;64.93;;;;;;;9.76;100.00;101179.41;5042942;28;20048;-80
2022/12/29 10:20:44;;;;;;;168.48;61.63;;;;;;;9.79;100.00;101168.53;5043821;28;20033;-80
2022/12/29 10:23:21;;;;;;;187.07;65.18;;;;;;;9.83;100.00;101164.66;5041810;28;20523;-79
2022/12/29 10:25:47;;;;;;;210.10;69.47;;;;;;;9.76;100.00;101176.78;5038759;28;20045;-80
2022/12/29 10:28:23;;;;;;;181.65;65.75;;;;;;;9.67;100.00;101180.25;5038176;28;20217;-83
2022/12/29 10:30:50;;;;;;;163.65;60.70;;;;;;;9.70;100.00;101177.34;5038995;28;20033;-80
2022/12/29 10:33:23;;;;;;;169.75;63.67;;;;;;;9.66;100.00;101170.66;5039058;28;20037;-81
2022/12/29 10:35:50;;;;;;;177.13;65.50;;;;;;;9.46;100.00;101163.69;5021557;28;20064;-83
2022/12/29 10:38:56;;;;;;;172.65;65.28;;;;;;;9.28;100.00;101160.03;5006026;28;20045;-83
2022/12/29 10:41:33;;;;;;;183.82;65.65;;;;;;;9.36;100.00;101154.91;4983641;28;20037;-87
2022/12/29 10:44:00;;;;;;;184.20;65.60;;;;;;;9.25;100.00;101149.75;5038294;28;20033;-80
2022/12/29 10:46:35;;;;;;;197.45;68.03;;;;;;;9.18;100.00;101146.00;5019681;28;20064;-79
2022/12/29 10:49:06;;;;;;;211.95;69.22;;;;;;;9.11;100.00;101134.31;5020616;28;20029;-81
2022/12/29 10:51:42;;;;;;;222.85;72.65;;;;;;;9.09;100.00;101136.22;5039715;28;20476;-83
2022/12/29 10:54:11;;;;;;;217.15;70.10;;;;;;;9.12;100.00;101135.94;5039888;28;20510;-82
2022/12/29 10:56:51;;;;;;;204.07;69.20;;;;;;;9.11;100.00;101140.44;5040929;28;20029;-84
2022/12/29 10:59:32;;;;;;;212.23;70.57;;;;;;;8.99;100.00;101135.38;5040689;28;20022;-82
2022/12/29 11:02:17;;;;;;;216.98;73.07;;;;;;;9.00;100.00;101139.69;5042276;28;20105;-81
2022/12/29 11:05:07;;;;;;;215.82;72.15;;;;;;;9.03;100.00;101126.22;5007474;28;20045;-83
2022/12/29 11:07:33;;;;;;;228.40;75.03;;;;;;;8.98;100.00;101123.97;5039291;28;20484;-82
2022/12/29 11:10:28;;;;;;;252.18;78.07;;;;;;;8.96;100.00;101122.44;5038818;28;20029;-81
2022/12/29 11:12:59;;;;;;;244.73;79.00;;;;;;;8.95;100.00;101118.16;5036751;28;20095;-82
2022/12/29 11:15:25;;;;;;;197.43;60.93;;;;;;;8.96;100.00;101120.63;5034609;28;20124;-84
2022/12/29 11:17:59;;;;;;;283.92;86.53;;;;;;;8.94;100.00;101100.59;5043635;28;20453;-84
2022/12/29 11:20:37;;;;;;;284.83;84.25;;;;;;;8.99;100.00;101098.38;5057867;28;20029;-81
2022/12/29 11:23:05;;;;;;;289.52;85.90;;;;;;;9.11;100.00;101102.56;5061686;28;20033;-80
2022/12/29 11:25:31;;;;;;;295.90;87.28;;;;;;;9.24;100.00;101103.13;5065980;28;20065;-81
2022/12/29 11:28:01;;;;;;;285.08;87.55;;;;;;;9.19;100.00;101106.19;5053354;28;20089;-80
2022/12/29 11:30:31;;;;;;;276.85;85.88;;;;;;;9.23;100.00;101112.88;5056440;28;20037;-82
2022/12/29 11:32:58;;;;;;;293.60;88.70;;;;;;;9.23;100.00;101106.75;5056544;28;20061;-81
2022/12/29 11:35:36;;;;;;;287.60;86.68;;;;;;;9.36;100.00;101102.00;5055078;28;20028;-86
2022/12/29 11:38:17;;;;;;;276.05;86.95;;;;;;;9.28;100.00;101109.78;5057443;28;20037;-87
2022/12/29 11:40:43;;;;;;;290.10;88.93;;;;;;;9.14;100.00;101118.16;5041514;28;20042;-83
2022/12/29 11:43:23;;;;;;;280.08;86.35;;;;;;;9.16;100.00;101108.25;5052767;28;20121;-81
2022/12/29 11:45:52;;;;;;;280.63;85.32;;;;;;;9.12;100.00;101109.50;5056946;28;20040;-81
2022/12/29 11:48:20;;;;;;;290.73;89.50;;;;;;;8.99;100.00;101108.94;5023157;28;20041;-84
2022/12/29 11:50:53;;;;;;;284.20;87.13;;;;;;;9.00;100.00;101115.91;5056689;28;20053;-82
2022/12/29 11:53:43;;;;;;;273.05;85.15;;;;;;;8.97;100.00;101110.91;5055999;28;20060;-84
2022/12/29 11:56:14;;;;;;;282.98;85.03;;;;;;;8.91;100.00;101106.16;5054651;28;20099;-84
2022/12/29 11:58:40;;;;;;;285.08;88.07;;;;;;;8.99;100.00;101106.28;5052727;28;20038;-82